createdAt,value
2022-12-14T00:00:31.243Z,87.99
2022-12-14T00:03:02.892Z,88.47
2022-12-14T00:05:34.678Z,88.25
2022-12-14T00:08:06.348Z,88.63
2022-12-14T00:10:39.266Z,88.58
2022-12-14T00:13:14.642Z,88.87
2022-12-14T00:15:45.985Z,88.23
2022-12-14T00:18:22.318Z,88.50
2022-12-14T00:20:53.882Z,88.36
2022-12-14T00:23:25.150Z,88.18
2022-12-14T00:25:56.900Z,88.22
2022-12-14T00:28:28.754Z,88.24
2022-12-14T00:31:00.381Z,88.25
2022-12-14T00:33:32.600Z,88.59
2022-12-14T00:36:06.182Z,88.24
2022-12-14T00:38:38.049Z,88.11
2022-12-14T00:41:10.335Z,88.17
2022-12-14T00:43:41.760Z,88.33
2022-12-14T00:46:13.063Z,87.93
2022-12-14T00:48:44.710Z,87.82
2022-12-14T00:51:16.000Z,88.01
2022-12-14T00:53:47.277Z,88.49
2022-12-14T00:56:18.643Z,88.10
2022-12-14T00:58:51.794Z,88.33
2022-12-14T01:01:23.179Z,87.89
2022-12-14T01:04:14.527Z,88.07
2022-12-14T01:06:47.547Z,87.65
2022-12-14T01:09:20.089Z,87.72
2022-12-14T01:11:51.892Z,87.62
2022-12-14T01:14:23.304Z,87.91
2022-12-14T01:16:54.583Z,87.47
2022-12-14T01:19:25.887Z,87.88
2022-12-14T01:21:57.149Z,87.81
2022-12-14T01:24:28.497Z,87.35
2022-12-14T01:26:59.773Z,87.55
2022-12-14T01:29:31.292Z,87.33
2022-12-14T01:32:02.623Z,87.29
2022-12-14T01:34:33.864Z,87.48
2022-12-14T01:37:05.280Z,87.39
2022-12-14T01:39:36.576Z,87.26
2022-12-14T01:42:11.808Z,87.02
2022-12-14T01:44:43.014Z,87.09
2022-12-14T01:47:28.222Z,87.44
2022-12-14T01:50:10.461Z,86.91
2022-12-14T01:52:45.039Z,86.77
2022-12-14T01:55:24.636Z,86.78
2022-12-14T01:58:21.028Z,86.89
2022-12-14T02:00:59.313Z,86.78
2022-12-14T02:03:34.754Z,86.60
2022-12-14T02:06:26.756Z,86.25
2022-12-14T02:08:58.043Z,86.13
2022-12-14T02:11:51.710Z,86.49
2022-12-14T02:14:23.774Z,86.09
2022-12-14T02:16:56.095Z,86.13
2022-12-14T02:19:27.858Z,85.96
2022-12-14T02:22:29.199Z,86.16
2022-12-14T02:25:23.294Z,86.35
2022-12-14T02:28:32.389Z,85.74
2022-12-14T02:31:22.204Z,85.91
2022-12-14T02:33:59.275Z,85.76
2022-12-14T02:36:42.165Z,85.77
2022-12-14T02:39:39.913Z,85.79
2022-12-14T02:42:19.713Z,85.64
2022-12-14T02:45:07.126Z,85.72
2022-12-14T02:47:50.083Z,85.40
2022-12-14T02:50:57.868Z,85.67
2022-12-14T02:53:33.462Z,85.59
2022-12-14T02:56:09.231Z,85.51
2022-12-14T02:58:44.124Z,85.46
2022-12-14T03:01:19.169Z,85.39
2022-12-14T03:03:51.013Z,85.26
2022-12-14T03:06:27.645Z,85.52
2022-12-14T03:09:08.605Z,85.56
2022-12-14T03:12:10.005Z,85.70
2022-12-14T03:14:48.004Z,85.14
2022-12-14T03:17:27.639Z,85.49
2022-12-14T03:20:11.198Z,85.59
2022-12-14T03:22:50.734Z,85.38
2022-12-14T03:25:30.851Z,85.21
2022-12-14T03:28:13.057Z,85.17
2022-12-14T03:31:00.600Z,85.19
2022-12-14T03:33:35.500Z,85.57
2022-12-14T03:36:14.834Z,85.41
2022-12-14T03:38:50.575Z,85.12
2022-12-14T03:41:27.884Z,85.08
2022-12-14T03:44:49.044Z,84.73
2022-12-14T03:47:30.109Z,85.18
2022-12-14T03:50:11.303Z,84.94
2022-12-14T03:53:04.368Z,85.41
2022-12-14T03:55:38.918Z,85.21
2022-12-14T03:58:57.016Z,85.18
2022-12-14T04:01:49.450Z,85.20
2022-12-14T04:04:42.325Z,85.08
2022-12-14T04:07:37.844Z,85.25
2022-12-14T04:10:35.650Z,84.91
2022-12-14T04:13:35.365Z,84.71
2022-12-14T04:16:31.267Z,84.89
2022-12-14T04:19:09.816Z,85.35
2022-12-14T04:21:47.867Z,85.04
2022-12-14T04:24:44.094Z,84.92
2022-12-14T04:27:18.581Z,84.49
2022-12-14T04:29:58.970Z,84.58
2022-12-14T04:32:38.022Z,84.86
2022-12-14T04:35:14.409Z,84.75
2022-12-14T04:37:49.104Z,84.88
2022-12-14T04:40:25.963Z,84.34
2022-12-14T04:43:05.596Z,84.69
2022-12-14T04:45:44.080Z,84.77
2022-12-14T04:48:36.446Z,84.77
2022-12-14T04:51:12.707Z,84.43
2022-12-14T04:53:46.123Z,84.83
2022-12-14T04:56:17.319Z,85.00
2022-12-14T04:58:48.930Z,84.35
2022-12-14T05:01:35.507Z,85.02
2022-12-14T05:04:33.615Z,84.63
2022-12-14T05:07:17.176Z,84.92
2022-12-14T05:09:55.568Z,84.70
2022-12-14T05:13:03.267Z,84.63
2022-12-14T05:15:40.905Z,84.51
2022-12-14T05:18:12.940Z,84.03
2022-12-14T05:20:46.533Z,84.35
2022-12-14T05:23:18.168Z,84.30
2022-12-14T05:25:49.523Z,84.21
2022-12-14T05:28:20.772Z,84.55
2022-12-14T05:30:52.085Z,84.31
2022-12-14T05:33:25.139Z,84.36
2022-12-14T05:35:56.625Z,84.67
2022-12-14T05:38:27.878Z,84.44
2022-12-14T05:40:59.124Z,84.42
2022-12-14T05:43:30.732Z,84.25
2022-12-14T05:46:04.772Z,84.52
2022-12-14T05:48:36.082Z,84.14
2022-12-14T05:51:13.414Z,84.45
2022-12-14T05:53:44.739Z,84.17
2022-12-14T05:56:16.044Z,84.15
2022-12-14T05:58:50.260Z,84.01
2022-12-14T06:01:21.687Z,84.15
2022-12-14T06:03:53.376Z,83.64
2022-12-14T06:06:24.756Z,83.62
2022-12-14T06:08:56.081Z,84.41
2022-12-14T06:11:27.331Z,84.07
2022-12-14T06:13:58.688Z,84.13
2022-12-14T06:16:30.014Z,84.76
2022-12-14T06:19:03.431Z,84.09
2022-12-14T06:21:37.000Z,84.35
2022-12-14T06:24:10.672Z,84.18
2022-12-14T06:26:42.325Z,84.48
2022-12-14T06:29:17.734Z,84.16
2022-12-14T06:31:49.437Z,84.54
2022-12-14T06:34:24.943Z,84.53
2022-12-14T06:36:59.691Z,84.60
2022-12-14T06:39:31.079Z,84.75
2022-12-14T06:42:02.643Z,84.76
2022-12-14T06:44:34.021Z,84.91
2022-12-14T06:47:05.403Z,84.81
2022-12-14T06:49:36.664Z,85.08
2022-12-14T06:52:07.916Z,84.84
2022-12-14T06:54:39.166Z,84.74
2022-12-14T06:57:10.405Z,84.44
2022-12-14T06:59:41.652Z,84.64
2022-12-14T07:02:13.080Z,84.71
2022-12-14T07:04:44.429Z,84.52
2022-12-14T07:07:15.694Z,84.57
2022-12-14T07:09:46.956Z,85.17
2022-12-14T07:12:18.190Z,84.64
2022-12-14T07:14:49.451Z,84.60
2022-12-14T07:17:21.590Z,84.53
2022-12-14T07:19:53.261Z,84.65
2022-12-14T07:22:24.515Z,85.02
2022-12-14T07:24:55.756Z,84.70
2022-12-14T07:27:27.104Z,84.49
2022-12-14T07:29:58.377Z,84.42
2022-12-14T07:32:29.772Z,84.99
2022-12-14T07:35:01.045Z,85.06
2022-12-14T07:37:32.737Z,85.33
2022-12-14T07:40:04.539Z,85.11
2022-12-14T07:42:35.789Z,85.56
2022-12-14T07:45:07.411Z,85.73
2022-12-14T07:47:38.662Z,85.52
2022-12-14T07:50:10.503Z,85.69
2022-12-14T07:52:41.753Z,85.22
2022-12-14T07:55:13.029Z,85.74
2022-12-14T07:57:44.356Z,85.73
2022-12-14T08:00:16.861Z,85.99
2022-12-14T08:02:48.169Z,85.77
2022-12-14T08:05:19.450Z,86.16
2022-12-14T08:07:50.701Z,86.40
2022-12-14T08:10:21.944Z,86.42
2022-12-14T08:12:53.199Z,86.37
2022-12-14T08:15:24.436Z,86.24
2022-12-14T08:17:55.717Z,86.54
2022-12-14T08:20:26.987Z,86.20
2022-12-14T08:22:58.401Z,86.35
2022-12-14T08:25:29.710Z,86.42
2022-12-14T08:28:00.974Z,86.54
2022-12-14T08:30:32.232Z,86.63
2022-12-14T08:33:03.496Z,86.84
2022-12-14T08:35:35.670Z,86.79
2022-12-14T08:38:06.980Z,86.73
2022-12-14T08:40:39.640Z,86.73
2022-12-14T08:43:10.946Z,87.05
2022-12-14T08:45:42.197Z,86.75
2022-12-14T08:48:13.451Z,87.08
2022-12-14T08:50:44.723Z,87.15
2022-12-14T08:53:21.023Z,87.40
2022-12-14T08:55:52.284Z,87.09
2022-12-14T08:58:23.541Z,87.39
2022-12-14T09:01:03.270Z,87.35
2022-12-14T09:03:34.978Z,87.82
2022-12-14T09:06:09.217Z,87.52
2022-12-14T09:08:40.929Z,87.27
2022-12-14T09:11:14.780Z,87.72
2022-12-14T09:13:46.612Z,87.96
2022-12-14T09:16:19.826Z,87.37
2022-12-14T09:18:51.099Z,87.69
2022-12-14T09:21:22.493Z,87.79
2022-12-14T09:23:59.036Z,87.77
2022-12-14T09:26:31.065Z,88.17
2022-12-14T09:29:02.326Z,88.09
2022-12-14T09:31:33.669Z,88.53
2022-12-14T09:34:04.939Z,88.24
2022-12-14T09:36:36.968Z,88.95
2022-12-14T09:39:08.289Z,88.37
2022-12-14T09:42:21.209Z,89.07
2022-12-14T09:44:57.785Z,88.42
2022-12-14T09:47:37.935Z,89.10
2022-12-14T09:50:21.123Z,88.82
2022-12-14T09:53:05.107Z,89.26
2022-12-14T09:55:44.716Z,89.49
2022-12-14T09:58:29.028Z,89.10
2022-12-14T10:01:22.406Z,88.91
2022-12-14T10:04:02.767Z,89.09
2022-12-14T10:06:44.560Z,89.78
2022-12-14T10:09:25.218Z,89.37
2022-12-14T10:12:19.705Z,89.85
2022-12-14T10:15:03.960Z,89.84
2022-12-14T10:18:05.246Z,89.74
2022-12-14T10:20:52.117Z,90.14
2022-12-14T10:23:25.080Z,89.67
2022-12-14T10:26:07.524Z,89.58
2022-12-14T10:29:01.008Z,90.36
2022-12-14T10:31:44.716Z,90.30
2022-12-14T10:34:24.344Z,90.21
2022-12-14T10:37:36.420Z,90.39
2022-12-14T10:40:16.414Z,90.53
2022-12-14T10:43:24.737Z,90.81
2022-12-14T10:46:13.773Z,90.99
2022-12-14T10:49:20.311Z,90.76
2022-12-14T10:51:57.407Z,91.03
2022-12-14T10:54:33.882Z,90.93
2022-12-14T10:57:05.572Z,90.94
2022-12-14T10:59:42.363Z,90.99
2022-12-14T11:02:24.410Z,91.08
2022-12-14T11:05:11.806Z,91.08
2022-12-14T11:07:45.677Z,90.72
2022-12-14T11:10:21.578Z,90.95
2022-12-14T11:13:04.936Z,90.98
2022-12-14T11:15:39.401Z,90.76
2022-12-14T11:18:16.826Z,91.08
2022-12-14T11:20:57.227Z,90.82
2022-12-14T11:23:36.378Z,91.10
2022-12-14T11:26:26.665Z,91.35
2022-12-14T11:29:00.449Z,91.02
2022-12-14T11:31:42.964Z,90.93
2022-12-14T11:34:29.765Z,91.53
2022-12-14T11:37:27.633Z,91.20
2022-12-14T11:40:01.374Z,91.27
2022-12-14T11:42:33.618Z,91.42
2022-12-14T11:45:26.585Z,91.05
2022-12-14T11:48:13.097Z,90.95
2022-12-14T11:50:46.749Z,91.16
2022-12-14T11:53:20.237Z,90.73
2022-12-14T11:56:00.181Z,90.43
2022-12-14T11:58:39.304Z,90.79
2022-12-14T12:01:16.593Z,91.01
2022-12-14T12:03:51.228Z,90.80
2022-12-14T12:06:25.718Z,91.32
2022-12-14T12:09:02.552Z,90.93
2022-12-14T12:11:34.946Z,90.43
2022-12-14T12:14:34.702Z,90.36
2022-12-14T12:17:20.119Z,90.45
2022-12-14T12:19:52.218Z,90.29
2022-12-14T12:22:23.689Z,90.73
2022-12-14T12:28:14.505Z,90.54
2022-12-14T12:30:50.834Z,91.09
2022-12-14T12:33:26.452Z,90.73
2022-12-14T12:36:03.624Z,90.13
2022-12-14T12:38:55.611Z,90.22
2022-12-14T12:41:37.933Z,90.96
2022-12-14T12:44:21.243Z,90.64
2022-12-14T12:47:37.019Z,90.43
2022-12-14T12:50:19.432Z,90.68
2022-12-14T12:53:06.040Z,90.90
2022-12-14T12:56:04.253Z,90.55
2022-12-14T12:58:36.951Z,91.00
2022-12-14T13:01:37.637Z,90.97
2022-12-14T13:04:15.461Z,90.37
2022-12-14T13:07:05.055Z,90.36
2022-12-14T13:10:26.024Z,90.32
2022-12-14T13:13:09.499Z,90.90
2022-12-14T13:15:48.683Z,91.29
2022-12-14T13:18:59.562Z,92.02
2022-12-14T13:21:38.287Z,91.39
2022-12-14T13:24:17.524Z,91.84
2022-12-14T13:27:17.286Z,91.67
2022-12-14T13:30:01.481Z,92.16
2022-12-14T13:32:57.470Z,91.74
2022-12-14T13:35:53.471Z,91.94
2022-12-14T13:38:56.757Z,91.21
2022-12-14T13:41:39.672Z,91.89
2022-12-14T13:44:38.634Z,91.86
2022-12-14T13:47:26.153Z,91.50
2022-12-14T13:52:58.799Z,91.50
2022-12-14T13:55:34.201Z,91.59
2022-12-14T13:58:21.752Z,91.43
2022-12-14T14:01:16.209Z,91.28
2022-12-14T14:03:52.353Z,91.47
2022-12-14T14:06:39.134Z,90.60
2022-12-14T14:09:28.497Z,90.83
2022-12-14T14:12:30.962Z,90.38
2022-12-14T14:15:24.190Z,90.93
2022-12-14T14:18:06.764Z,90.82
2022-12-14T14:20:41.650Z,91.17
2022-12-14T14:23:15.968Z,90.70
2022-12-14T14:25:51.785Z,90.92
2022-12-14T14:28:29.880Z,90.84
2022-12-14T14:31:01.288Z,90.96
2022-12-14T14:33:47.362Z,91.01
2022-12-14T14:36:35.996Z,91.13
2022-12-14T14:39:55.738Z,90.78
2022-12-14T14:42:24.436Z,90.85
2022-12-14T14:44:59.618Z,91.01
2022-12-14T14:47:39.704Z,90.63
2022-12-14T14:50:14.104Z,90.97
2022-12-14T14:52:58.569Z,90.73
2022-12-14T14:58:31.944Z,90.72
2022-12-14T15:01:06.770Z,90.44
2022-12-14T15:03:48.854Z,90.29
2022-12-14T15:06:33.223Z,90.24
2022-12-14T15:09:23.835Z,90.14
2022-12-14T15:12:01.142Z,90.32
2022-12-14T15:14:43.322Z,89.82
2022-12-14T15:17:22.560Z,89.53
2022-12-14T15:19:55.565Z,89.67
2022-12-14T15:22:29.684Z,89.68
2022-12-14T15:25:02.132Z,89.92
2022-12-14T15:27:35.887Z,89.21
2022-12-14T15:30:10.116Z,89.53
2022-12-14T15:32:47.986Z,89.48
2022-12-14T15:35:25.308Z,89.13
2022-12-14T15:38:00.928Z,88.95
2022-12-14T15:40:34.481Z,89.14
2022-12-14T15:43:18.315Z,88.60
2022-12-14T15:45:55.981Z,88.45
2022-12-14T15:48:34.960Z,88.69
2022-12-14T15:51:10.867Z,88.28
2022-12-14T15:53:54.491Z,88.41
2022-12-14T15:56:34.807Z,88.50
2022-12-14T15:59:18.407Z,88.53
2022-12-14T16:02:00.067Z,88.01
2022-12-14T16:04:37.052Z,88.17
2022-12-14T16:07:21.060Z,87.54
2022-12-14T16:09:56.854Z,87.95
2022-12-14T16:12:44.189Z,87.44
2022-12-14T16:15:25.884Z,87.75
2022-12-14T16:18:02.300Z,87.90
2022-12-14T16:20:37.132Z,87.36
2022-12-14T16:23:14.264Z,87.26
2022-12-14T16:25:56.456Z,87.07
2022-12-14T16:28:36.039Z,87.71
2022-12-14T16:31:13.215Z,87.47
2022-12-14T16:33:44.996Z,87.68
2022-12-14T16:36:25.459Z,87.57
2022-12-14T16:39:00.532Z,87.25
2022-12-14T16:41:41.969Z,87.34
2022-12-14T16:44:29.245Z,87.52
2022-12-14T16:47:00.448Z,87.78
2022-12-14T16:49:33.027Z,87.09
2022-12-14T16:56:06.217Z,87.06
2022-12-14T16:58:37.724Z,86.70
2022-12-14T17:01:09.521Z,87.02
2022-12-14T17:03:41.058Z,86.89
2022-12-14T17:06:22.675Z,86.98
2022-12-14T17:08:54.105Z,86.61
2022-12-14T17:11:29.966Z,86.91
2022-12-14T17:14:01.410Z,86.51
2022-12-14T17:16:33.260Z,86.79
2022-12-14T17:19:05.987Z,86.88
2022-12-14T17:21:37.413Z,86.81
2022-12-14T17:24:15.950Z,86.80
2022-12-14T17:26:48.205Z,86.51
2022-12-14T17:29:24.148Z,86.54
2022-12-14T17:31:57.797Z,86.84
2022-12-14T17:34:29.956Z,86.44
2022-12-14T17:37:01.226Z,86.41
2022-12-14T17:39:35.560Z,86.39
2022-12-14T17:42:11.297Z,86.46
2022-12-14T17:44:46.328Z,86.49
2022-12-14T17:47:17.627Z,86.30
2022-12-14T17:49:48.886Z,86.53
2022-12-14T17:52:26.679Z,86.49
2022-12-14T17:54:59.001Z,86.47
2022-12-14T17:57:30.580Z,86.21
2022-12-14T18:00:20.776Z,86.07
2022-12-14T18:02:52.200Z,86.51
2022-12-14T18:05:23.635Z,86.33
2022-12-14T18:07:54.888Z,86.42
2022-12-14T18:10:27.139Z,85.98
2022-12-14T18:12:58.630Z,85.99
2022-12-14T18:15:39.354Z,85.44
2022-12-14T18:18:10.624Z,86.13
2022-12-14T18:20:44.768Z,85.96
2022-12-14T18:23:21.716Z,85.96
2022-12-14T18:25:55.514Z,86.04
2022-12-14T18:28:26.862Z,85.85
2022-12-14T18:31:13.227Z,86.14
2022-12-14T18:33:45.486Z,85.90
2022-12-14T18:36:19.735Z,85.68
2022-12-14T18:38:51.948Z,85.90
2022-12-14T18:41:26.389Z,85.66
2022-12-14T18:44:00.446Z,85.81
2022-12-14T18:46:31.876Z,85.78
2022-12-14T18:49:03.210Z,85.69
2022-12-14T18:51:34.471Z,85.33
2022-12-14T18:54:05.846Z,85.46
2022-12-14T18:56:37.281Z,85.34
2022-12-14T18:59:08.687Z,85.99
2022-12-14T19:01:40.188Z,85.69
2022-12-14T19:04:11.595Z,85.47
2022-12-14T19:06:45.065Z,85.30
2022-12-14T19:09:16.750Z,85.57
2022-12-14T19:11:48.023Z,85.30
2022-12-14T19:14:19.386Z,85.19
2022-12-14T19:16:51.677Z,85.61
2022-12-14T19:19:25.711Z,85.44
2022-12-14T19:21:58.970Z,85.38
2022-12-14T19:24:30.224Z,85.70
2022-12-14T19:27:01.628Z,85.37
2022-12-14T19:29:33.041Z,85.66
2022-12-14T19:32:05.875Z,85.86
2022-12-14T19:34:37.379Z,85.14
2022-12-14T19:37:08.803Z,85.22
2022-12-14T19:39:40.225Z,85.03
2022-12-14T19:42:11.621Z,85.78
2022-12-14T19:44:43.042Z,85.17
2022-12-14T19:47:14.729Z,85.23
2022-12-14T19:49:46.112Z,84.77
2022-12-14T19:52:17.380Z,84.78
2022-12-14T19:54:48.651Z,84.92
2022-12-14T19:57:19.943Z,84.69
2022-12-14T19:59:51.294Z,84.79
2022-12-14T20:02:22.692Z,84.92
2022-12-14T20:04:54.111Z,84.44
2022-12-14T20:07:25.459Z,84.75
2022-12-14T20:09:56.713Z,84.60
2022-12-14T20:12:31.855Z,84.43
2022-12-14T20:15:04.043Z,85.23
2022-12-14T20:17:35.364Z,84.64
2022-12-14T20:20:07.329Z,84.83
2022-12-14T20:22:38.617Z,84.80
2022-12-14T20:25:10.206Z,84.79
2022-12-14T20:27:41.561Z,84.75
2022-12-14T20:30:12.986Z,84.52
2022-12-14T20:32:44.434Z,84.71
2022-12-14T20:35:20.712Z,84.27
2022-12-14T20:37:55.758Z,84.37
2022-12-14T20:40:27.059Z,84.66
2022-12-14T20:42:58.339Z,84.66
2022-12-14T20:45:29.644Z,84.47
2022-12-14T20:48:01.084Z,84.65
2022-12-14T20:50:32.629Z,84.89
2022-12-14T20:53:04.557Z,84.76
2022-12-14T20:55:36.126Z,84.63
2022-12-14T20:58:07.445Z,84.79
2022-12-14T21:00:38.809Z,84.82
2022-12-14T21:03:10.341Z,84.58
2022-12-14T21:05:42.028Z,84.63
2022-12-14T21:08:15.534Z,84.81
2022-12-14T21:10:46.810Z,84.71
2022-12-14T21:13:18.197Z,84.92
2022-12-14T21:15:49.475Z,85.07
2022-12-14T21:18:20.817Z,84.97
2022-12-14T21:20:52.088Z,84.96
2022-12-14T21:23:23.371Z,84.83
2022-12-14T21:25:54.641Z,85.21
2022-12-14T21:28:30.467Z,84.96
2022-12-14T21:31:05.318Z,85.11
2022-12-14T21:33:36.595Z,85.22
2022-12-14T21:36:08.634Z,85.42
2022-12-14T21:38:39.917Z,85.37
2022-12-14T21:41:30.217Z,85.40
2022-12-14T21:44:01.504Z,85.70
2022-12-14T21:46:33.226Z,85.40
2022-12-14T21:49:06.593Z,85.55
2022-12-14T21:51:38.282Z,85.64
2022-12-14T21:54:16.324Z,85.32
2022-12-14T21:57:05.966Z,85.62
2022-12-14T21:59:39.673Z,85.48
2022-12-14T22:02:17.246Z,85.49
2022-12-14T22:04:49.680Z,85.35
2022-12-14T22:07:22.223Z,85.19
2022-12-14T22:09:53.509Z,85.46
2022-12-14T22:12:25.458Z,85.60
2022-12-14T22:14:56.732Z,85.62
2022-12-14T22:17:28.019Z,85.42
2022-12-14T22:19:59.394Z,85.70
2022-12-14T22:22:30.727Z,85.58
2022-12-14T22:25:02.171Z,85.58
2022-12-14T22:27:33.559Z,85.44
2022-12-14T22:30:05.488Z,85.40
2022-12-14T22:32:36.737Z,85.30
2022-12-14T22:35:09.392Z,85.60
2022-12-14T22:37:40.641Z,85.28
2022-12-14T22:40:12.378Z,85.00
2022-12-14T22:42:43.727Z,85.00
2022-12-14T22:45:14.993Z,85.17
2022-12-14T22:47:46.296Z,85.68
2022-12-14T22:50:17.866Z,85.30
2022-12-14T22:52:49.665Z,85.13
2022-12-14T22:55:21.356Z,85.43
2022-12-14T22:57:53.958Z,85.22
2022-12-14T23:00:25.245Z,85.31
2022-12-14T23:02:56.667Z,85.18
2022-12-14T23:05:28.078Z,85.15
2022-12-14T23:07:59.316Z,85.09
2022-12-14T23:10:49.888Z,85.18
2022-12-14T23:13:39.806Z,85.18
2022-12-14T23:16:29.978Z,85.25
2022-12-14T23:19:20.133Z,85.54
2022-12-14T23:22:09.854Z,85.37
2022-12-14T23:24:59.633Z,85.58
2022-12-14T23:27:49.879Z,85.31
2022-12-14T23:30:39.988Z,85.14
2022-12-14T23:33:30.274Z,85.47
2022-12-14T23:36:20.095Z,85.40
2022-12-14T23:39:09.778Z,85.17
2022-12-14T23:41:59.625Z,85.08
2022-12-14T23:44:49.717Z,85.39
2022-12-14T23:47:39.672Z,85.37
2022-12-14T23:50:30.106Z,85.49
2022-12-14T23:53:27.634Z,85.42
2022-12-14T23:56:19.052Z,85.24
2022-12-14T23:59:13.340Z,85.50
